sensor_id;sensor_type;location;lat;lon;timestamp;pressure;altitude;pressure_sealevel;temperature;humidity
50867;BME280;36839;51.946;21.002;2023-02-21T00:01:15;98775.84;;;7.01;100.00
50867;BME280;36839;51.946;21.002;2023-02-21T00:04:01;98770.14;;;7.03;100.00
50867;BME280;36839;51.946;21.002;2023-02-21T00:06:46;98776.02;;;7.02;100.00
50867;BME280;36839;51.946;21.002;2023-02-21T00:09:32;98787.52;;;7.05;100.00
50867;BME280;36839;51.946;21.002;2023-02-21T00:12:20;98777.17;;;7.11;100.00
50867;BME280;36839;51.946;21.002;2023-02-21T00:15:07;98783.27;;;7.13;100.00
50867;BME280;36839;51.946;21.002;2023-02-21T00:17:53;98785.25;;;7.10;100.00
50867;BME280;36839;51.946;21.002;2023-02-21T00:20:40;98771.73;;;7.09;100.00
50867;BME280;36839;51.946;21.002;2023-02-21T00:23:25;98784.48;;;7.08;100.00
50867;BME280;36839;51.946;21.002;2023-02-21T00:26:10;98784.98;;;7.07;100.00
50867;BME280;36839;51.946;21.002;2023-02-21T00:29:01;98774.15;;;7.12;100.00
50867;BME280;36839;51.946;21.002;2023-02-21T00:31:47;98766.40;;;7.13;100.00
50867;BME280;36839;51.946;21.002;2023-02-21T00:34:32;98782.44;;;7.13;100.00
50867;BME280;36839;51.946;21.002;2023-02-21T00:37:18;98761.80;;;7.10;100.00
50867;BME280;36839;51.946;21.002;2023-02-21T00:40:09;98763.44;;;7.02;100.00
50867;BME280;36839;51.946;21.002;2023-02-21T00:42:55;98770.39;;;6.96;100.00
50867;BME280;36839;51.946;21.002;2023-02-21T00:45:45;98784.56;;;6.93;100.00
50867;BME280;36839;51.946;21.002;2023-02-21T00:48:32;98758.71;;;6.93;100.00
50867;BME280;36839;51.946;21.002;2023-02-21T00:51:19;98768.71;;;7.01;100.00
50867;BME280;36839;51.946;21.002;2023-02-21T00:54:04;98772.16;;;7.03;100.00
50867;BME280;36839;51.946;21.002;2023-02-21T00:56:51;98767.19;;;6.99;100.00
50867;BME280;36839;51.946;21.002;2023-02-21T00:59:37;98772.44;;;6.92;100.00
50867;BME280;36839;51.946;21.002;2023-02-21T01:02:22;98772.23;;;6.87;100.00
50867;BME280;36839;51.946;21.002;2023-02-21T01:05:08;98760.30;;;6.91;100.00
50867;BME280;36839;51.946;21.002;2023-02-21T01:07:54;98772.98;;;6.94;100.00
50867;BME280;36839;51.946;21.002;2023-02-21T01:10:40;98772.38;;;6.94;100.00
50867;BME280;36839;51.946;21.002;2023-02-21T01:13:25;98748.56;;;6.91;100.00
50867;BME280;36839;51.946;21.002;2023-02-21T01:16:12;98756.73;;;6.84;100.00
50867;BME280;36839;51.946;21.002;2023-02-21T01:19:02;98758.98;;;6.84;100.00
50867;BME280;36839;51.946;21.002;2023-02-21T01:21:54;98755.25;;;6.84;100.00
50867;BME280;36839;51.946;21.002;2023-02-21T01:24:41;98759.30;;;6.82;100.00
50867;BME280;36839;51.946;21.002;2023-02-21T01:27:29;98762.38;;;6.82;100.00
50867;BME280;36839;51.946;21.002;2023-02-21T01:30:16;98757.08;;;6.89;100.00
50867;BME280;36839;51.946;21.002;2023-02-21T01:33:03;98763.48;;;6.93;100.00
50867;BME280;36839;51.946;21.002;2023-02-21T01:35:50;98740.38;;;6.90;100.00
50867;BME280;36839;51.946;21.002;2023-02-21T01:38:36;98746.82;;;6.88;100.00
50867;BME280;36839;51.946;21.002;2023-02-21T01:41:21;98752.99;;;6.84;100.00
50867;BME280;36839;51.946;21.002;2023-02-21T01:44:37;98752.66;;;6.81;100.00
50867;BME280;36839;51.946;21.002;2023-02-21T01:47:23;98753.13;;;6.78;100.00
50867;BME280;36839;51.946;21.002;2023-02-21T01:50:30;98736.86;;;6.75;100.00
50867;BME280;36839;51.946;21.002;2023-02-21T01:53:23;98745.42;;;6.70;100.00
50867;BME280;36839;51.946;21.002;2023-02-21T01:56:09;98738.27;;;6.77;100.00
50867;BME280;36839;51.946;21.002;2023-02-21T01:59:00;98737.88;;;6.87;100.00
50867;BME280;36839;51.946;21.002;2023-02-21T02:04:36;98729.89;;;6.93;100.00
50867;BME280;36839;51.946;21.002;2023-02-21T02:07:22;98744.11;;;6.94;100.00
50867;BME280;36839;51.946;21.002;2023-02-21T02:10:09;98756.36;;;7.01;100.00
50867;BME280;36839;51.946;21.002;2023-02-21T02:37:06;98744.19;;;6.62;100.00
50867;BME280;36839;51.946;21.002;2023-02-21T02:47:44;98746.79;;;6.73;100.00
50867;BME280;36839;51.946;21.002;2023-02-21T02:50:17;98741.63;;;6.75;100.00
50867;BME280;36839;51.946;21.002;2023-02-21T02:52:53;98743.77;;;6.76;100.00
50867;BME280;36839;51.946;21.002;2023-02-21T02:55:40;98744.30;;;6.77;100.00
50867;BME280;36839;51.946;21.002;2023-02-21T02:58:10;98754.42;;;6.79;100.00
50867;BME280;36839;51.946;21.002;2023-02-21T03:00:42;98754.54;;;6.83;100.00
50867;BME280;36839;51.946;21.002;2023-02-21T03:06:41;98747.64;;;6.88;100.00
50867;BME280;36839;51.946;21.002;2023-02-21T03:09:17;98764.11;;;6.87;100.00
50867;BME280;36839;51.946;21.002;2023-02-21T03:14:59;98759.74;;;6.81;100.00
50867;BME280;36839;51.946;21.002;2023-02-21T03:17:29;98751.83;;;6.76;100.00
50867;BME280;36839;51.946;21.002;2023-02-21T03:19:59;98761.02;;;6.68;100.00
50867;BME280;36839;51.946;21.002;2023-02-21T03:22:29;98758.84;;;6.64;100.00
50867;BME280;36839;51.946;21.002;2023-02-21T03:25:01;98768.00;;;6.63;100.00
50867;BME280;36839;51.946;21.002;2023-02-21T03:27:30;98763.11;;;6.62;100.00
50867;BME280;36839;51.946;21.002;2023-02-21T03:30:02;98758.25;;;6.60;100.00
50867;BME280;36839;51.946;21.002;2023-02-21T03:34:59;98762.41;;;6.64;100.00
50867;BME280;36839;51.946;21.002;2023-02-21T03:39:56;98756.63;;;6.50;100.00
50867;BME280;36839;51.946;21.002;2023-02-21T03:42:23;98759.94;;;6.45;100.00
50867;BME280;36839;51.946;21.002;2023-02-21T03:44:54;98745.67;;;6.42;100.00
50867;BME280;36839;51.946;21.002;2023-02-21T03:47:23;98743.48;;;6.43;100.00
50867;BME280;36839;51.946;21.002;2023-02-21T03:49:50;98734.19;;;6.40;100.00
50867;BME280;36839;51.946;21.002;2023-02-21T03:52:18;98728.21;;;6.35;100.00
50867;BME280;36839;51.946;21.002;2023-02-21T03:54:46;98737.32;;;6.33;100.00
50867;BME280;36839;51.946;21.002;2023-02-21T03:57:14;98732.73;;;6.30;100.00
50867;BME280;36839;51.946;21.002;2023-02-21T03:59:41;98733.90;;;6.27;100.00
50867;BME280;36839;51.946;21.002;2023-02-21T04:02:09;98743.44;;;6.28;100.00
50867;BME280;36839;51.946;21.002;2023-02-21T04:04:38;98747.83;;;6.22;100.00
50867;BME280;36839;51.946;21.002;2023-02-21T04:07:05;98743.55;;;6.21;100.00
50867;BME280;36839;51.946;21.002;2023-02-21T04:09:33;98728.72;;;6.14;100.00
50867;BME280;36839;51.946;21.002;2023-02-21T04:12:00;98751.00;;;6.07;100.00
50867;BME280;36839;51.946;21.002;2023-02-21T04:14:27;98772.02;;;6.18;100.00
50867;BME280;36839;51.946;21.002;2023-02-21T04:16:56;98752.14;;;6.17;100.00
50867;BME280;36839;51.946;21.002;2023-02-21T04:19:23;98736.23;;;6.18;100.00
50867;BME280;36839;51.946;21.002;2023-02-21T04:21:51;98732.23;;;6.11;100.00
50867;BME280;36839;51.946;21.002;2023-02-21T04:24:18;98737.84;;;6.02;100.00
50867;BME280;36839;51.946;21.002;2023-02-21T04:26:45;98745.73;;;6.02;100.00
50867;BME280;36839;51.946;21.002;2023-02-21T04:29:13;98748.75;;;6.00;100.00
50867;BME280;36839;51.946;21.002;2023-02-21T04:31:39;98736.69;;;5.96;100.00
50867;BME280;36839;51.946;21.002;2023-02-21T04:34:06;98766.36;;;5.97;100.00
50867;BME280;36839;51.946;21.002;2023-02-21T04:36:33;98769.04;;;5.94;100.00
50867;BME280;36839;51.946;21.002;2023-02-21T04:39:03;98768.09;;;5.88;100.00
50867;BME280;36839;51.946;21.002;2023-02-21T04:41:31;98750.45;;;5.80;100.00
50867;BME280;36839;51.946;21.002;2023-02-21T04:43:57;98754.55;;;5.78;100.00
50867;BME280;36839;51.946;21.002;2023-02-21T04:46:25;98769.73;;;5.77;100.00
50867;BME280;36839;51.946;21.002;2023-02-21T04:48:52;98740.31;;;5.69;100.00
50867;BME280;36839;51.946;21.002;2023-02-21T04:51:21;98744.59;;;5.56;100.00
50867;BME280;36839;51.946;21.002;2023-02-21T04:53:49;98751.39;;;5.50;100.00
50867;BME280;36839;51.946;21.002;2023-02-21T04:56:20;98749.67;;;5.49;100.00
50867;BME280;36839;51.946;21.002;2023-02-21T04:58:47;98746.02;;;5.47;100.00
50867;BME280;36839;51.946;21.002;2023-02-21T05:01:17;98753.30;;;5.42;100.00
50867;BME280;36839;51.946;21.002;2023-02-21T05:03:47;98751.15;;;5.40;100.00
50867;BME280;36839;51.946;21.002;2023-02-21T05:06:21;98769.92;;;5.38;100.00
50867;BME280;36839;51.946;21.002;2023-02-21T05:08:50;98780.83;;;5.40;100.00
50867;BME280;36839;51.946;21.002;2023-02-21T05:11:19;98791.23;;;5.39;100.00
50867;BME280;36839;51.946;21.002;2023-02-21T05:13:49;98797.52;;;5.37;100.00
50867;BME280;36839;51.946;21.002;2023-02-21T05:16:18;98794.73;;;5.37;100.00
50867;BME280;36839;51.946;21.002;2023-02-21T05:18:47;98783.23;;;5.35;100.00
50867;BME280;36839;51.946;21.002;2023-02-21T05:21:17;98782.63;;;5.35;100.00
50867;BME280;36839;51.946;21.002;2023-02-21T05:23:45;98783.41;;;5.32;100.00
50867;BME280;36839;51.946;21.002;2023-02-21T05:26:26;98788.98;;;5.32;100.00
50867;BME280;36839;51.946;21.002;2023-02-21T05:28:55;98776.54;;;5.30;100.00
50867;BME280;36839;51.946;21.002;2023-02-21T05:31:22;98773.85;;;5.21;100.00
50867;BME280;36839;51.946;21.002;2023-02-21T05:33:49;98782.54;;;5.14;100.00
50867;BME280;36839;51.946;21.002;2023-02-21T05:36:16;98787.69;;;5.15;100.00
50867;BME280;36839;51.946;21.002;2023-02-21T05:38:49;98784.23;;;5.16;100.00
50867;BME280;36839;51.946;21.002;2023-02-21T05:41:18;98796.83;;;5.17;100.00
50867;BME280;36839;51.946;21.002;2023-02-21T05:43:47;98801.20;;;5.15;100.00
50867;BME280;36839;51.946;21.002;2023-02-21T05:46:22;98803.40;;;5.17;100.00
50867;BME280;36839;51.946;21.002;2023-02-21T05:48:49;98815.49;;;5.17;100.00
50867;BME280;36839;51.946;21.002;2023-02-21T05:51:16;98818.51;;;5.17;100.00
50867;BME280;36839;51.946;21.002;2023-02-21T05:53:44;98811.31;;;5.11;100.00
50867;BME280;36839;51.946;21.002;2023-02-21T05:56:15;98820.77;;;5.07;100.00
50867;BME280;36839;51.946;21.002;2023-02-21T05:58:43;98822.70;;;5.09;100.00
50867;BME280;36839;51.946;21.002;2023-02-21T06:01:10;98816.67;;;5.11;100.00
50867;BME280;36839;51.946;21.002;2023-02-21T06:03:38;98825.78;;;5.16;100.00
50867;BME280;36839;51.946;21.002;2023-02-21T06:06:05;98822.66;;;5.19;100.00
50867;BME280;36839;51.946;21.002;2023-02-21T06:08:41;98825.75;;;5.22;100.00
50867;BME280;36839;51.946;21.002;2023-02-21T06:11:08;98823.40;;;5.22;100.00
50867;BME280;36839;51.946;21.002;2023-02-21T06:13:35;98830.89;;;5.21;100.00
50867;BME280;36839;51.946;21.002;2023-02-21T06:16:03;98829.48;;;5.23;100.00
50867;BME280;36839;51.946;21.002;2023-02-21T06:18:30;98841.30;;;5.28;100.00
50867;BME280;36839;51.946;21.002;2023-02-21T06:20:57;98850.20;;;5.38;100.00
50867;BME280;36839;51.946;21.002;2023-02-21T06:23:24;98842.10;;;5.40;100.00
50867;BME280;36839;51.946;21.002;2023-02-21T06:25:52;98841.73;;;5.45;100.00
50867;BME280;36839;51.946;21.002;2023-02-21T06:28:19;98835.55;;;5.45;100.00
50867;BME280;36839;51.946;21.002;2023-02-21T06:30:46;98832.16;;;5.48;100.00
50867;BME280;36839;51.946;21.002;2023-02-21T06:33:13;98838.47;;;5.52;100.00
50867;BME280;36839;51.946;21.002;2023-02-21T06:35:40;98837.81;;;5.59;100.00
50867;BME280;36839;51.946;21.002;2023-02-21T06:38:07;98834.05;;;5.62;100.00
50867;BME280;36839;51.946;21.002;2023-02-21T06:40:37;98831.35;;;5.66;100.00
50867;BME280;36839;51.946;21.002;2023-02-21T06:43:05;98823.42;;;5.69;100.00
50867;BME280;36839;51.946;21.002;2023-02-21T06:45:32;98814.06;;;5.71;100.00
50867;BME280;36839;51.946;21.002;2023-02-21T06:47:58;98826.99;;;5.71;100.00
50867;BME280;36839;51.946;21.002;2023-02-21T06:50:25;98836.02;;;5.73;100.00
50867;BME280;36839;51.946;21.002;2023-02-21T06:52:52;98836.90;;;5.76;100.00
50867;BME280;36839;51.946;21.002;2023-02-21T06:55:21;98844.20;;;5.79;100.00
50867;BME280;36839;51.946;21.002;2023-02-21T06:57:48;98847.55;;;5.82;100.00
50867;BME280;36839;51.946;21.002;2023-02-21T07:00:16;98850.94;;;5.85;100.00
50867;BME280;36839;51.946;21.002;2023-02-21T07:02:43;98841.29;;;5.86;100.00
50867;BME280;36839;51.946;21.002;2023-02-21T07:05:11;98854.34;;;5.89;100.00
50867;BME280;36839;51.946;21.002;2023-02-21T07:07:38;98854.27;;;5.92;100.00
50867;BME280;36839;51.946;21.002;2023-02-21T07:10:11;98864.30;;;5.96;100.00
50867;BME280;36839;51.946;21.002;2023-02-21T07:12:39;98847.36;;;6.04;100.00
50867;BME280;36839;51.946;21.002;2023-02-21T07:15:06;98883.21;;;6.07;100.00
50867;BME280;36839;51.946;21.002;2023-02-21T07:17:33;98869.95;;;6.06;100.00
50867;BME280;36839;51.946;21.002;2023-02-21T07:20:00;98878.84;;;6.09;100.00
50867;BME280;36839;51.946;21.002;2023-02-21T07:22:29;98883.16;;;6.10;100.00
50867;BME280;36839;51.946;21.002;2023-02-21T07:24:56;98885.95;;;6.11;99.81
50867;BME280;36839;51.946;21.002;2023-02-21T07:27:23;98901.68;;;6.15;98.85
50867;BME280;36839;51.946;21.002;2023-02-21T07:29:50;98903.13;;;6.20;98.05
50867;BME280;36839;51.946;21.002;2023-02-21T07:32:19;98911.39;;;6.25;99.27
50867;BME280;36839;51.946;21.002;2023-02-21T07:34:46;98907.08;;;6.28;99.17
50867;BME280;36839;51.946;21.002;2023-02-21T07:37:14;98903.39;;;6.31;99.81
50867;BME280;36839;51.946;21.002;2023-02-21T07:39:41;98915.13;;;6.30;98.56
50867;BME280;36839;51.946;21.002;2023-02-21T07:42:08;98937.27;;;6.33;98.96
50867;BME280;36839;51.946;21.002;2023-02-21T07:44:35;98919.02;;;6.40;100.00
50867;BME280;36839;51.946;21.002;2023-02-21T07:47:02;98928.63;;;6.47;100.00
50867;BME280;36839;51.946;21.002;2023-02-21T07:49:30;98934.27;;;6.44;100.00
50867;BME280;36839;51.946;21.002;2023-02-21T07:51:57;98939.42;;;6.34;100.00
50867;BME280;36839;51.946;21.002;2023-02-21T07:54:24;98951.70;;;6.30;100.00
50867;BME280;36839;51.946;21.002;2023-02-21T07:56:51;98964.27;;;6.26;100.00
50867;BME280;36839;51.946;21.002;2023-02-21T07:59:18;98953.63;;;6.28;100.00
50867;BME280;36839;51.946;21.002;2023-02-21T08:01:47;98963.45;;;6.29;100.00
50867;BME280;36839;51.946;21.002;2023-02-21T08:04:14;98975.84;;;6.26;100.00
50867;BME280;36839;51.946;21.002;2023-02-21T08:06:47;98971.23;;;6.22;100.00
50867;BME280;36839;51.946;21.002;2023-02-21T08:09:15;98977.47;;;6.17;100.00
50867;BME280;36839;51.946;21.002;2023-02-21T08:11:42;98973.99;;;6.15;100.00
50867;BME280;36839;51.946;21.002;2023-02-21T08:14:09;98973.91;;;6.16;100.00
50867;BME280;36839;51.946;21.002;2023-02-21T08:16:38;98983.62;;;6.16;100.00
50867;BME280;36839;51.946;21.002;2023-02-21T08:19:05;98987.23;;;6.17;100.00
50867;BME280;36839;51.946;21.002;2023-02-21T08:21:32;98999.02;;;6.17;100.00
50867;BME280;36839;51.946;21.002;2023-02-21T08:23:59;99009.75;;;6.16;100.00
50867;BME280;36839;51.946;21.002;2023-02-21T08:26:26;99012.87;;;6.14;100.00
50867;BME280;36839;51.946;21.002;2023-02-21T08:28:55;99006.52;;;6.12;100.00
50867;BME280;36839;51.946;21.002;2023-02-21T08:31:22;99001.52;;;6.12;100.00
50867;BME280;36839;51.946;21.002;2023-02-21T08:33:49;99002.78;;;6.14;100.00
50867;BME280;36839;51.946;21.002;2023-02-21T08:36:20;99006.25;;;6.16;100.00
50867;BME280;36839;51.946;21.002;2023-02-21T08:38:50;99012.56;;;6.20;100.00
50867;BME280;36839;51.946;21.002;2023-02-21T08:41:20;99032.91;;;6.19;100.00
50867;BME280;36839;51.946;21.002;2023-02-21T08:43:48;99023.53;;;6.18;100.00
50867;BME280;36839;51.946;21.002;2023-02-21T08:46:15;99024.63;;;6.22;100.00
50867;BME280;36839;51.946;21.002;2023-02-21T08:48:44;99048.20;;;6.21;100.00
50867;BME280;36839;51.946;21.002;2023-02-21T08:51:11;99052.14;;;6.16;100.00
50867;BME280;36839;51.946;21.002;2023-02-21T08:53:39;99056.18;;;6.15;100.00
50867;BME280;36839;51.946;21.002;2023-02-21T08:56:22;99065.23;;;6.11;100.00
50867;BME280;36839;51.946;21.002;2023-02-21T08:58:49;99055.14;;;6.11;100.00
50867;BME280;36839;51.946;21.002;2023-02-21T09:01:16;99070.00;;;6.10;100.00
50867;BME280;36839;51.946;21.002;2023-02-21T09:03:44;99072.02;;;6.07;100.00
50867;BME280;36839;51.946;21.002;2023-02-21T09:06:12;99048.95;;;6.11;100.00
50867;BME280;36839;51.946;21.002;2023-02-21T09:08:40;99073.56;;;6.12;100.00
50867;BME280;36839;51.946;21.002;2023-02-21T09:11:07;99070.67;;;6.16;100.00
50867;BME280;36839;51.946;21.002;2023-02-21T09:13:34;99075.62;;;6.22;100.00
50867;BME280;36839;51.946;21.002;2023-02-21T09:16:02;99076.77;;;6.21;100.00
50867;BME280;36839;51.946;21.002;2023-02-21T09:18:31;99085.00;;;6.19;100.00
50867;BME280;36839;51.946;21.002;2023-02-21T09:20:58;99080.40;;;6.24;100.00
50867;BME280;36839;51.946;21.002;2023-02-21T09:23:29;99085.41;;;6.29;100.00
50867;BME280;36839;51.946;21.002;2023-02-21T09:25:57;99110.36;;;6.28;100.00
50867;BME280;36839;51.946;21.002;2023-02-21T09:28:24;99080.54;;;6.31;100.00
50867;BME280;36839;51.946;21.002;2023-02-21T09:30:52;99082.23;;;6.35;100.00
50867;BME280;36839;51.946;21.002;2023-02-21T09:33:19;99083.19;;;6.45;100.00
50867;BME280;36839;51.946;21.002;2023-02-21T09:35:46;99084.90;;;6.49;100.00
50867;BME280;36839;51.946;21.002;2023-02-21T09:38:13;99085.85;;;6.56;100.00
50867;BME280;36839;51.946;21.002;2023-02-21T09:40:47;99081.36;;;6.62;100.00
50867;BME280;36839;51.946;21.002;2023-02-21T09:43:28;99114.14;;;6.67;100.00
50867;BME280;36839;51.946;21.002;2023-02-21T09:46:10;99099.98;;;6.76;100.00
50867;BME280;36839;51.946;21.002;2023-02-21T09:48:40;99102.74;;;6.84;100.00
50867;BME280;36839;51.946;21.002;2023-02-21T09:51:10;99108.22;;;6.89;100.00
50867;BME280;36839;51.946;21.002;2023-02-21T09:53:41;99097.09;;;6.95;100.00
50867;BME280;36839;51.946;21.002;2023-02-21T09:56:35;99105.38;;;7.07;100.00
50867;BME280;36839;51.946;21.002;2023-02-21T09:59:13;99100.16;;;7.25;100.00
50867;BME280;36839;51.946;21.002;2023-02-21T10:10:13;99114.88;;;7.15;100.00
50867;BME280;36839;51.946;21.002;2023-02-21T10:16:52;99143.75;;;7.44;100.00
50867;BME280;36839;51.946;21.002;2023-02-21T10:19:29;99145.30;;;7.32;100.00
50867;BME280;36839;51.946;21.002;2023-02-21T10:22:37;99153.11;;;7.21;100.00
50867;BME280;36839;51.946;21.002;2023-02-21T10:25:39;99145.36;;;7.33;100.00
50867;BME280;36839;51.946;21.002;2023-02-21T10:28:16;99157.93;;;7.28;100.00
50867;BME280;36839;51.946;21.002;2023-02-21T10:30:45;99146.17;;;7.40;100.00
50867;BME280;36839;51.946;21.002;2023-02-21T10:33:19;99162.71;;;7.36;100.00
50867;BME280;36839;51.946;21.002;2023-02-21T10:35:48;99166.18;;;7.24;100.00
50867;BME280;36839;51.946;21.002;2023-02-21T10:38:19;99162.29;;;7.20;100.00
50867;BME280;36839;51.946;21.002;2023-02-21T10:41:01;99159.75;;;7.22;100.00
50867;BME280;36839;51.946;21.002;2023-02-21T10:43:35;99177.93;;;7.25;100.00
50867;BME280;36839;51.946;21.002;2023-02-21T10:51:39;99163.37;;;7.12;100.00
50867;BME280;36839;51.946;21.002;2023-02-21T10:56:49;99162.89;;;7.28;100.00
50867;BME280;36839;51.946;21.002;2023-02-21T10:59:27;99156.73;;;7.39;100.00
50867;BME280;36839;51.946;21.002;2023-02-21T11:01:56;99169.69;;;7.44;100.00
50867;BME280;36839;51.946;21.002;2023-02-21T11:04:31;99163.37;;;7.54;100.00
50867;BME280;36839;51.946;21.002;2023-02-21T11:07:07;99162.90;;;7.64;100.00
50867;BME280;36839;51.946;21.002;2023-02-21T11:09:37;99188.87;;;7.51;100.00
50867;BME280;36839;51.946;21.002;2023-02-21T11:12:29;99186.56;;;7.49;100.00
50867;BME280;36839;51.946;21.002;2023-02-21T11:17:29;99181.11;;;7.64;100.00
50867;BME280;36839;51.946;21.002;2023-02-21T11:20:03;99191.83;;;7.66;100.00
50867;BME280;36839;51.946;21.002;2023-02-21T11:25:27;99194.16;;;7.75;100.00
50867;BME280;36839;51.946;21.002;2023-02-21T11:31:05;99204.84;;;7.77;100.00
50867;BME280;36839;51.946;21.002;2023-02-21T11:33:41;99203.30;;;7.70;99.97
50867;BME280;36839;51.946;21.002;2023-02-21T11:36:16;99213.93;;;7.63;100.00
50867;BME280;36839;51.946;21.002;2023-02-21T11:41:34;99211.27;;;7.42;100.00
50867;BME280;36839;51.946;21.002;2023-02-21T11:47:16;99215.95;;;7.29;100.00
50867;BME280;36839;51.946;21.002;2023-02-21T11:53:08;99209.58;;;7.35;100.00
50867;BME280;36839;51.946;21.002;2023-02-21T11:55:43;99202.93;;;7.31;100.00
50867;BME280;36839;51.946;21.002;2023-02-21T11:58:27;99210.67;;;7.29;100.00
50867;BME280;36839;51.946;21.002;2023-02-21T12:01:29;99205.13;;;7.31;100.00
50867;BME280;36839;51.946;21.002;2023-02-21T12:04:32;99240.53;;;7.17;100.00
50867;BME280;36839;51.946;21.002;2023-02-21T12:07:40;99241.39;;;7.03;100.00
50867;BME280;36839;51.946;21.002;2023-02-21T12:12:54;99229.86;;;7.03;100.00
50867;BME280;36839;51.946;21.002;2023-02-21T12:15:26;99257.45;;;6.90;100.00
50867;BME280;36839;51.946;21.002;2023-02-21T12:18:04;99263.48;;;6.77;100.00
50867;BME280;36839;51.946;21.002;2023-02-21T12:21:20;99249.09;;;6.71;100.00
50867;BME280;36839;51.946;21.002;2023-02-21T12:32:44;99251.19;;;6.36;100.00
50867;BME280;36839;51.946;21.002;2023-02-21T12:38:17;99259.44;;;6.34;100.00
50867;BME280;36839;51.946;21.002;2023-02-21T12:46:26;99268.31;;;6.42;100.00
50867;BME280;36839;51.946;21.002;2023-02-21T12:49:24;99256.85;;;6.43;100.00
50867;BME280;36839;51.946;21.002;2023-02-21T12:57:55;99262.39;;;6.33;100.00
50867;BME280;36839;51.946;21.002;2023-02-21T13:00:32;99253.57;;;6.32;100.00
50867;BME280;36839;51.946;21.002;2023-02-21T13:12:20;99264.77;;;6.54;100.00
50867;BME280;36839;51.946;21.002;2023-02-21T13:17:31;99263.23;;;6.70;100.00
50867;BME280;36839;51.946;21.002;2023-02-21T13:20:08;99291.22;;;6.67;100.00
50867;BME280;36839;51.946;21.002;2023-02-21T13:28:30;99308.05;;;6.28;100.00
50867;BME280;36839;51.946;21.002;2023-02-21T13:31:04;99310.27;;;6.05;100.00
50867;BME280;36839;51.946;21.002;2023-02-21T13:33:43;99295.14;;;5.98;100.00
50867;BME280;36839;51.946;21.002;2023-02-21T13:38:41;99310.95;;;5.85;100.00
50867;BME280;36839;51.946;21.002;2023-02-21T13:41:11;99316.79;;;5.80;100.00
50867;BME280;36839;51.946;21.002;2023-02-21T13:43:50;99315.98;;;5.83;100.00
50867;BME280;36839;51.946;21.002;2023-02-21T14:03:04;99328.19;;;6.17;100.00
50867;BME280;36839;51.946;21.002;2023-02-21T14:13:57;99355.52;;;6.08;100.00
50867;BME280;36839;51.946;21.002;2023-02-21T14:16:36;99351.52;;;5.95;100.00
50867;BME280;36839;51.946;21.002;2023-02-21T14:19:21;99355.15;;;5.87;100.00
50867;BME280;36839;51.946;21.002;2023-02-21T14:22:03;99352.04;;;5.77;100.00
50867;BME280;36839;51.946;21.002;2023-02-21T14:24:35;99357.39;;;5.73;100.00
50867;BME280;36839;51.946;21.002;2023-02-21T14:29:43;99358.25;;;5.72;100.00
50867;BME280;36839;51.946;21.002;2023-02-21T14:49:42;99368.38;;;5.67;100.00
50867;BME280;36839;51.946;21.002;2023-02-21T15:04:30;99384.61;;;5.98;100.00
50867;BME280;36839;51.946;21.002;2023-02-21T15:07:20;99383.15;;;6.00;100.00
50867;BME280;36839;51.946;21.002;2023-02-21T15:10:15;99380.20;;;6.03;100.00
50867;BME280;36839;51.946;21.002;2023-02-21T15:12:48;99384.15;;;6.03;100.00
50867;BME280;36839;51.946;21.002;2023-02-21T15:15:21;99391.27;;;6.02;100.00
50867;BME280;36839;51.946;21.002;2023-02-21T15:20:28;99390.06;;;6.02;100.00
50867;BME280;36839;51.946;21.002;2023-02-21T15:22:59;99392.30;;;6.00;100.00
50867;BME280;36839;51.946;21.002;2023-02-21T15:25:27;99396.73;;;6.00;100.00
50867;BME280;36839;51.946;21.002;2023-02-21T15:27:55;99394.38;;;5.99;100.00
50867;BME280;36839;51.946;21.002;2023-02-21T15:30:32;99402.36;;;5.97;100.00
50867;BME280;36839;51.946;21.002;2023-02-21T15:35:40;99408.80;;;5.96;100.00
50867;BME280;36839;51.946;21.002;2023-02-21T15:38:25;99415.21;;;5.95;100.00
50867;BME280;36839;51.946;21.002;2023-02-21T15:41:01;99419.12;;;5.96;100.00
50867;BME280;36839;51.946;21.002;2023-02-21T15:43:56;99413.05;;;5.96;100.00
50867;BME280;36839;51.946;21.002;2023-02-21T15:46:26;99416.52;;;5.95;100.00
50867;BME280;36839;51.946;21.002;2023-02-21T15:48:59;99426.81;;;5.93;100.00
50867;BME280;36839;51.946;21.002;2023-02-21T15:51:28;99427.46;;;5.92;100.00
50867;BME280;36839;51.946;21.002;2023-02-21T15:54:22;99432.38;;;5.90;100.00
50867;BME280;36839;51.946;21.002;2023-02-21T15:57:03;99445.35;;;5.87;100.00
50867;BME280;36839;51.946;21.002;2023-02-21T15:59:31;99439.30;;;5.85;100.00
50867;BME280;36839;51.946;21.002;2023-02-21T16:02:13;99455.63;;;5.84;100.00
50867;BME280;36839;51.946;21.002;2023-02-21T16:04:45;99447.92;;;5.87;100.00
50867;BME280;36839;51.946;21.002;2023-02-21T16:07:34;99458.71;;;5.86;100.00
50867;BME280;36839;51.946;21.002;2023-02-21T16:10:06;99462.10;;;5.84;100.00
50867;BME280;36839;51.946;21.002;2023-02-21T16:12:38;99455.48;;;5.85;100.00
50867;BME280;36839;51.946;21.002;2023-02-21T16:15:33;99458.86;;;5.84;100.00
50867;BME280;36839;51.946;21.002;2023-02-21T16:18:06;99462.59;;;5.84;100.00
50867;BME280;36839;51.946;21.002;2023-02-21T16:20:39;99462.91;;;5.83;100.00
50867;BME280;36839;51.946;21.002;2023-02-21T16:28:37;99468.54;;;5.81;100.00
50867;BME280;36839;51.946;21.002;2023-02-21T16:31:14;99478.62;;;5.81;100.00
50867;BME280;36839;51.946;21.002;2023-02-21T16:33:42;99476.33;;;5.82;100.00
50867;BME280;36839;51.946;21.002;2023-02-21T16:36:24;99478.20;;;5.82;100.00
50867;BME280;36839;51.946;21.002;2023-02-21T16:38:57;99479.66;;;5.80;100.00
50867;BME280;36839;51.946;21.002;2023-02-21T16:41:24;99492.81;;;5.80;100.00
50867;BME280;36839;51.946;21.002;2023-02-21T16:43:51;99490.08;;;5.80;100.00
50867;BME280;36839;51.946;21.002;2023-02-21T16:46:25;99487.59;;;5.79;100.00